FYWH

Hosea Kutako International Airport

Windhoek, Namibia
METAR FYWH 100600Z 14010KT CAVOK 18/M13 Q1024 NOSIG
Observed Flight Rules
Dec-10 @ 06:00 UTC (53 minutes ago) Visual Flight Rules
Wind Visibility Clouds
140° at 10 knots 10,000+ meters
  • Clear skies
Temperatures Readings
Current 18°C / 64°F
Dewpoint -13°C / 9°F
Humidity 11%
Altimeter 30.24" Hg
Pressure 1024 hPa
Elevation 1700
METAR FYWH 100600Z 14010KT CAVOK 18/M13 Q1024 NOSIG
Observed Flight Rules
Dec-10 @ 06:00 UTC
(53 minutes ago)
VFR
Wind Visibility
140° at 10 knots 10,000+ meters
Clouds
  • Clear skies
Temperature Dewpoint
18°C / 64°F -13°C / 9°F
Humidity Altimeter Pressure
11% 30.24" Hg 1024 hPa